Helena Regional Airport
KHLN : now visible

Airfield :











YOU CAN JOIN US ON...

 
LOGIN :

Register | Disclaimer

   EN    FR    IT 

 









Legend :    VFR   Marginal VFR   IFR   Intensive IFR   Very Intensive IFR
Visi :
Ceiling :
>= 8 km
>= 3000ft
5 to 8 km
1000 to 3000 ft
1500m to 5 km
500 to 1000 ft
800 to 1500m
200 to 500 ft
< 800m
< 200 ft
Symbols :   Thunderstorms  Fog  Heavy snow  Heavy precipitations  Wind > 20 kt







- Airport Elevation : 3877 ft
- IATA code : HLN


KHLN - Helena Regional

CURRENT METAR :
  • 201953Z 25007KT 10SM BKN050 15/04 A2991 RMK AO2 SLP129 T01500039

EXPIRED METARs :
  • 201853Z 27008KT 10SM OVC048 15/04 A2991 RMK AO2 SLP129 T01500039
  • 201753Z 01004KT 10SM FEW042 SCT050 14/04 A2991 RMK AO2 SLP131 T01440044 10144 20089 58006

TAF KHLN
Valid from the 20 at 18:00 until the 21 at 18:00 UTC


201744Z 2018/2118 29008KT P6SM FEW045 BKN100
FM210100 28007KT P6SM SCT045 BKN080
PROB30 2104/2106 5SM -RA BKN035
FM210600 29007KT P6SM SCT028 BKN060
PROB30 2106/2112 4SM -RA BR BKN028
FM211200 VRB04KT P6SM SCT028 BKN045
No reported NOTAMs for that airfield.



MET'MAP, your aeronautical weather chart ! - Copyright ORBIFLY December 2007 - Disclaimer

ORBIFLY MET'MAP TEAM :

Programming & Development : Alexandra Zaïnal
Concept & Development : Baudouin d'Aumeries
Co-Development & Prog : Marc-Olivier Méhu
Technical & hardware support : Manuel Goepfert

Contact : metmap@orbifly.com




SOURCES & CREDITS :

   NOAA       Earth
Advisory